createdAt,value
2023-04-28T00:00:42.983Z,3.84
2023-04-28T00:01:42.987Z,3.84
2023-04-28T00:02:43.035Z,3.85
2023-04-28T00:03:43.112Z,3.85
2023-04-28T00:04:43.149Z,3.85
2023-04-28T00:05:42.985Z,3.88
2023-04-28T00:06:42.905Z,3.90
2023-04-28T00:07:42.898Z,3.82
2023-04-28T00:08:42.897Z,3.80
2023-04-28T00:09:42.881Z,3.83
2023-04-28T00:10:42.866Z,3.84
2023-04-28T00:11:42.866Z,3.81
2023-04-28T00:12:42.855Z,3.78
2023-04-28T00:13:42.833Z,3.75
2023-04-28T00:14:42.819Z,3.78
2023-04-28T00:15:42.841Z,3.72
2023-04-28T00:16:43.047Z,3.72
2023-04-28T00:17:42.946Z,3.74
2023-04-28T00:18:42.835Z,3.77
2023-04-28T00:19:42.869Z,3.72
2023-04-28T00:20:42.904Z,3.68
2023-04-28T00:21:42.932Z,3.68
2023-04-28T00:22:42.973Z,3.70
2023-04-28T00:23:42.975Z,3.68
2023-04-28T00:24:43.001Z,3.70
2023-04-28T00:25:43.048Z,3.66
2023-04-28T00:26:43.043Z,3.67
2023-04-28T00:27:43.089Z,3.67
2023-04-28T00:28:43.088Z,3.65
2023-04-28T00:29:43.121Z,3.63
2023-04-28T00:30:43.147Z,3.62
2023-04-28T00:31:43.170Z,3.62
2023-04-28T00:32:43.200Z,3.63
2023-04-28T00:33:43.111Z,3.64
2023-04-28T00:34:43.101Z,3.62
2023-04-28T00:35:43.094Z,3.69
2023-04-28T00:36:43.098Z,3.64
2023-04-28T00:37:43.047Z,3.63
2023-04-28T00:38:43.043Z,3.58
2023-04-28T00:39:43.009Z,3.62
2023-04-28T00:40:43.011Z,3.59
2023-04-28T00:41:42.988Z,3.59
2023-04-28T00:42:42.967Z,3.60
2023-04-28T00:43:42.954Z,3.63
2023-04-28T00:44:42.940Z,3.60
2023-04-28T00:45:42.942Z,3.59
2023-04-28T00:46:43.080Z,3.57
2023-04-28T00:47:42.947Z,3.52
2023-04-28T00:48:42.876Z,3.54
2023-04-28T00:49:42.868Z,3.54
2023-04-28T00:50:42.855Z,3.56
2023-04-28T00:51:42.842Z,3.49
2023-04-28T00:52:42.821Z,3.49
2023-04-28T00:53:42.806Z,3.47
2023-04-28T00:54:42.779Z,3.47
2023-04-28T00:55:42.775Z,3.48
2023-04-28T00:56:42.764Z,3.48
2023-04-28T00:57:42.733Z,3.46
2023-04-28T00:58:42.714Z,3.53
2023-04-28T00:59:42.703Z,3.47
2023-04-28T01:00:42.693Z,3.48
2023-04-28T01:01:42.718Z,3.48
2023-04-28T01:02:42.847Z,3.38
2023-04-28T01:03:42.713Z,3.44
2023-04-28T01:04:42.778Z,3.42
2023-04-28T01:05:42.742Z,3.42
2023-04-28T01:06:42.714Z,3.43
2023-04-28T01:07:42.691Z,3.43
2023-04-28T01:08:42.727Z,3.43
2023-04-28T01:09:42.645Z,3.44
2023-04-28T01:10:42.660Z,3.45
2023-04-28T01:11:42.620Z,3.41
2023-04-28T01:12:42.587Z,3.41
2023-04-28T01:13:42.574Z,3.41
2023-04-28T01:14:42.535Z,3.42
2023-04-28T01:15:42.536Z,3.42
2023-04-28T01:16:42.590Z,3.41
2023-04-28T01:17:42.490Z,3.41
2023-04-28T01:18:42.447Z,3.43
2023-04-28T01:19:42.428Z,3.44
2023-04-28T01:20:42.403Z,3.35
2023-04-28T01:21:42.383Z,3.43
2023-04-28T01:22:42.367Z,3.33
2023-04-28T01:23:42.334Z,3.32
2023-04-28T01:24:42.348Z,3.30
2023-04-28T01:25:42.409Z,3.31
2023-04-28T01:26:42.447Z,3.29
2023-04-28T01:27:42.492Z,3.31
2023-04-28T01:28:42.529Z,3.27
2023-04-28T01:29:42.579Z,3.25
2023-04-28T01:30:42.633Z,3.24
2023-04-28T01:31:42.680Z,3.24
2023-04-28T01:32:42.727Z,3.25
2023-04-28T01:33:42.780Z,3.22
2023-04-28T01:34:42.790Z,3.24
2023-04-28T01:35:42.853Z,3.23
2023-04-28T01:36:42.953Z,3.22
2023-04-28T01:37:42.956Z,3.13
2023-04-28T01:38:42.985Z,3.19
2023-04-28T01:39:43.043Z,3.14
2023-04-28T01:40:43.069Z,3.15
2023-04-28T01:41:43.188Z,3.16
2023-04-28T01:42:43.186Z,3.16
2023-04-28T01:43:43.212Z,3.10
2023-04-28T01:44:43.261Z,3.12
2023-04-28T01:45:43.330Z,3.11
2023-04-28T01:46:43.326Z,3.08
2023-04-28T01:47:43.401Z,3.09
2023-04-28T01:48:43.390Z,3.09
2023-04-28T01:49:43.422Z,3.05
2023-04-28T01:50:43.477Z,3.14
2023-04-28T01:51:43.516Z,3.09
2023-04-28T01:52:43.534Z,3.01
2023-04-28T01:53:43.569Z,3.03
2023-04-28T01:54:43.632Z,3.08
2023-04-28T01:55:43.687Z,3.01
2023-04-28T01:56:43.723Z,3.05
2023-04-28T01:57:43.757Z,3.05
2023-04-28T01:58:43.792Z,3.03
2023-04-28T01:59:43.837Z,2.95
2023-04-28T02:00:43.876Z,3.01
2023-04-28T02:01:43.906Z,2.99
2023-04-28T02:02:43.989Z,2.97
2023-04-28T02:03:44.069Z,2.98
2023-04-28T02:04:44.017Z,2.92
2023-04-28T02:05:43.978Z,2.97
2023-04-28T02:06:44.011Z,2.96
2023-04-28T02:07:44.049Z,2.96
2023-04-28T02:08:44.102Z,2.98
2023-04-28T02:09:44.121Z,2.93
2023-04-28T02:10:44.185Z,2.95
2023-04-28T02:11:44.223Z,2.93
2023-04-28T02:12:44.328Z,2.94
2023-04-28T02:13:44.338Z,2.94
2023-04-28T02:14:44.325Z,2.91
2023-04-28T02:15:44.410Z,2.88
2023-04-28T02:16:44.415Z,2.90
2023-04-28T02:17:44.578Z,2.93
2023-04-28T02:18:44.479Z,2.88
2023-04-28T02:19:44.533Z,2.90
2023-04-28T02:20:44.573Z,2.86
2023-04-28T02:21:44.627Z,2.88
2023-04-28T02:22:44.669Z,2.88
2023-04-28T02:23:44.716Z,2.85
2023-04-28T02:24:44.774Z,2.86
2023-04-28T02:25:44.839Z,2.83
2023-04-28T02:26:44.879Z,2.86
2023-04-28T02:27:44.917Z,2.89
2023-04-28T02:28:44.961Z,2.86
2023-04-28T02:29:45.010Z,2.85
2023-04-28T02:30:45.074Z,2.85
2023-04-28T02:31:45.131Z,2.88
2023-04-28T02:32:45.258Z,2.84
2023-04-28T02:33:45.199Z,2.84
2023-04-28T02:34:45.218Z,2.80
2023-04-28T02:35:45.234Z,2.78
2023-04-28T02:36:45.192Z,2.78
2023-04-28T02:37:45.175Z,2.79
2023-04-28T02:38:45.149Z,2.80
2023-04-28T02:39:45.121Z,2.79
2023-04-28T02:40:45.091Z,2.80
2023-04-28T02:41:45.078Z,2.81
2023-04-28T02:42:45.056Z,2.83
2023-04-28T02:43:45.022Z,2.85
2023-04-28T02:44:44.997Z,2.78
2023-04-28T02:45:44.977Z,2.80
2023-04-28T02:46:44.990Z,2.79
2023-04-28T02:47:44.984Z,2.78
2023-04-28T02:48:44.947Z,2.79
2023-04-28T02:49:44.896Z,2.79
2023-04-28T02:50:44.888Z,2.80
2023-04-28T02:51:44.896Z,2.82
2023-04-28T02:52:44.958Z,2.80
2023-04-28T02:53:44.812Z,2.79
2023-04-28T02:54:44.793Z,2.82
2023-04-28T02:55:44.762Z,2.80
2023-04-28T02:56:44.750Z,2.77
2023-04-28T02:57:44.716Z,2.80
2023-04-28T02:58:44.700Z,2.76
2023-04-28T02:59:44.703Z,2.75
2023-04-28T03:00:44.767Z,2.78
2023-04-28T03:01:44.788Z,2.76
2023-04-28T03:02:44.839Z,2.78
2023-04-28T03:03:44.918Z,2.77
2023-04-28T03:04:44.951Z,2.73
2023-04-28T03:05:44.815Z,2.71
2023-04-28T03:06:44.815Z,2.71
2023-04-28T03:07:44.829Z,2.75
2023-04-28T03:08:44.865Z,2.67
2023-04-28T03:09:44.866Z,2.69
2023-04-28T03:10:44.953Z,2.66
2023-04-28T03:11:44.907Z,2.67
2023-04-28T03:12:44.910Z,2.69
2023-04-28T03:13:44.940Z,2.70
2023-04-28T03:14:44.975Z,2.68
2023-04-28T03:15:45.007Z,2.68
2023-04-28T03:16:45.005Z,2.66
2023-04-28T03:17:45.057Z,2.63
2023-04-28T03:18:45.012Z,2.65
2023-04-28T03:19:45.042Z,2.66
2023-04-28T03:20:45.077Z,2.62
2023-04-28T03:21:45.122Z,2.65
2023-04-28T03:22:45.126Z,2.65
2023-04-28T03:23:45.168Z,2.61
2023-04-28T03:24:45.138Z,2.63
2023-04-28T03:25:45.152Z,2.59
2023-04-28T03:26:45.158Z,2.59
2023-04-28T03:27:45.137Z,2.57
2023-04-28T03:28:45.179Z,2.62
2023-04-28T03:29:45.159Z,2.60
2023-04-28T03:30:45.177Z,2.60
2023-04-28T03:31:45.235Z,2.57
2023-04-28T03:32:45.245Z,2.56
2023-04-28T03:33:45.245Z,2.59
2023-04-28T03:34:45.257Z,2.54
2023-04-28T03:35:45.250Z,2.57
2023-04-28T03:36:45.247Z,2.53
2023-04-28T03:37:45.217Z,2.53
2023-04-28T03:38:45.176Z,2.54
2023-04-28T03:39:45.155Z,2.52
2023-04-28T03:40:45.125Z,2.55
2023-04-28T03:41:45.147Z,2.58
2023-04-28T03:42:45.077Z,2.53
2023-04-28T03:43:45.060Z,2.54
2023-04-28T03:44:45.026Z,2.55
2023-04-28T03:45:45.054Z,2.54
2023-04-28T03:46:44.984Z,2.55
2023-04-28T03:47:45.053Z,2.53
2023-04-28T03:48:45.014Z,2.52
2023-04-28T03:49:45.025Z,2.49
2023-04-28T03:50:45.019Z,2.50
2023-04-28T03:51:45.063Z,2.50
2023-04-28T03:52:45.100Z,2.37
2023-04-28T03:53:45.163Z,2.44
2023-04-28T03:54:45.203Z,2.42
2023-04-28T03:55:45.256Z,2.41
2023-04-28T03:56:45.323Z,2.41
2023-04-28T03:57:45.309Z,2.41
2023-04-28T03:58:45.343Z,2.39
2023-04-28T03:59:45.349Z,2.39
2023-04-28T04:00:45.347Z,2.40
2023-04-28T04:01:45.350Z,2.36
2023-04-28T04:02:45.560Z,2.40
2023-04-28T04:03:45.683Z,2.37
2023-04-28T04:04:45.490Z,2.39
2023-04-28T04:05:45.389Z,2.33
2023-04-28T04:06:45.393Z,2.34
2023-04-28T04:07:45.399Z,2.30
2023-04-28T04:08:45.475Z,2.32
2023-04-28T04:09:45.478Z,2.32
2023-04-28T04:10:45.506Z,2.35
2023-04-28T04:11:45.500Z,2.36
2023-04-28T04:12:45.521Z,2.33
2023-04-28T04:13:45.543Z,2.29
2023-04-28T04:14:45.519Z,2.29
2023-04-28T04:15:45.526Z,2.30
2023-04-28T04:16:45.470Z,2.30
2023-04-28T04:17:45.481Z,2.30
2023-04-28T04:18:45.425Z,2.32
2023-04-28T04:19:45.389Z,2.27
2023-04-28T04:20:45.372Z,2.27
2023-04-28T04:21:45.340Z,2.28
2023-04-28T04:22:45.334Z,2.29
2023-04-28T04:23:45.288Z,2.27
2023-04-28T04:24:45.320Z,2.34
2023-04-28T04:25:45.245Z,2.31
2023-04-28T04:26:45.227Z,2.30
2023-04-28T04:27:45.204Z,2.27
2023-04-28T04:28:45.174Z,2.28
2023-04-28T04:29:45.173Z,2.30
2023-04-28T04:30:45.135Z,2.25
2023-04-28T04:31:45.224Z,2.24
2023-04-28T04:32:45.161Z,2.24
2023-04-28T04:33:45.158Z,2.22
2023-04-28T04:34:45.141Z,2.22
2023-04-28T04:35:45.186Z,2.21
2023-04-28T04:36:45.174Z,2.21
2023-04-28T04:37:45.141Z,2.22
2023-04-28T04:38:45.137Z,2.22
2023-04-28T04:39:45.110Z,2.21
2023-04-28T04:40:45.152Z,2.23
2023-04-28T04:41:45.074Z,2.21
2023-04-28T04:42:45.054Z,2.19
2023-04-28T04:43:45.044Z,2.19
2023-04-28T04:44:45.022Z,2.21
2023-04-28T04:45:44.997Z,2.16
2023-04-28T04:46:45.072Z,2.19
2023-04-28T04:47:45.115Z,2.16
2023-04-28T04:48:45.039Z,2.18
2023-04-28T04:49:45.063Z,2.14
2023-04-28T04:50:45.109Z,2.16
2023-04-28T04:51:45.076Z,2.16
2023-04-28T04:52:45.043Z,2.17
2023-04-28T04:53:45.030Z,2.15
2023-04-28T04:54:45.007Z,2.13
2023-04-28T04:55:44.983Z,2.11
2023-04-28T04:56:44.980Z,2.12
2023-04-28T04:57:44.978Z,2.13
2023-04-28T04:58:44.948Z,2.11
2023-04-28T04:59:44.898Z,2.09
2023-04-28T05:00:44.874Z,2.11
2023-04-28T05:01:44.907Z,2.11
2023-04-28T05:02:44.893Z,2.10
2023-04-28T05:03:44.953Z,2.05
2023-04-28T05:04:44.913Z,2.13
2023-04-28T05:05:46.172Z,2.08
2023-04-28T05:06:44.827Z,2.12
2023-04-28T05:07:44.806Z,2.05
2023-04-28T05:08:44.811Z,2.09
2023-04-28T05:09:44.831Z,2.09
2023-04-28T05:10:44.824Z,2.07
2023-04-28T05:11:44.869Z,2.08
2023-04-28T05:12:46.800Z,2.05
2023-04-28T05:13:44.837Z,2.09
2023-04-28T05:14:44.882Z,2.08
2023-04-28T05:15:44.800Z,2.07
2023-04-28T05:16:44.853Z,2.07
2023-04-28T05:17:44.779Z,2.03
2023-04-28T05:18:44.760Z,2.03
2023-04-28T05:19:44.723Z,2.03
2023-04-28T05:20:44.676Z,2.04
2023-04-28T05:21:44.669Z,2.03
2023-04-28T05:22:44.678Z,2.01
2023-04-28T05:23:44.642Z,2.03
2023-04-28T05:24:44.600Z,1.99
2023-04-28T05:25:44.575Z,2.00
2023-04-28T05:26:44.562Z,1.97
2023-04-28T05:27:44.519Z,1.97
2023-04-28T05:28:44.505Z,2.04
2023-04-28T05:29:44.492Z,2.00
2023-04-28T05:30:44.496Z,1.99
2023-04-28T05:31:44.493Z,1.94
2023-04-28T05:32:44.512Z,1.99
2023-04-28T05:33:44.411Z,1.98
2023-04-28T05:34:44.398Z,2.02
2023-04-28T05:35:44.451Z,2.02
2023-04-28T05:36:44.414Z,2.11
2023-04-28T05:37:44.377Z,2.14
2023-04-28T05:38:44.941Z,2.19
2023-04-28T05:39:44.355Z,2.26
2023-04-28T05:40:44.260Z,2.35
2023-04-28T05:41:44.385Z,2.44
2023-04-28T05:42:44.217Z,2.56
2023-04-28T05:43:44.180Z,2.57
2023-04-28T05:44:44.155Z,2.62
2023-04-28T05:45:44.196Z,2.58
2023-04-28T05:46:44.151Z,2.65
2023-04-28T05:47:44.191Z,2.86
2023-04-28T05:48:44.170Z,3.24
2023-04-28T05:49:44.056Z,3.96
2023-04-28T05:50:44.028Z,4.32
2023-04-28T05:51:43.997Z,4.66
2023-04-28T05:52:43.974Z,4.91
2023-04-28T05:53:43.975Z,5.32
2023-04-28T05:54:43.941Z,5.60
2023-04-28T05:55:43.974Z,5.97
2023-04-28T05:56:43.989Z,6.38
2023-04-28T05:57:52.325Z,6.73
2023-04-28T05:58:45.025Z,6.76
2023-04-28T05:59:43.955Z,6.92
2023-04-28T06:00:43.943Z,7.36
2023-04-28T06:01:43.912Z,8.26
2023-04-28T06:02:43.980Z,9.81
2023-04-28T06:03:44.043Z,10.31
2023-04-28T06:04:44.045Z,11.16
2023-04-28T06:05:44.168Z,11.64
2023-04-28T06:06:43.747Z,12.15
2023-04-28T06:07:43.738Z,12.75
2023-04-28T06:08:43.682Z,13.13
2023-04-28T06:09:43.654Z,13.92
2023-04-28T06:10:43.621Z,13.94
2023-04-28T06:11:43.612Z,14.06
2023-04-28T06:12:43.588Z,14.62
2023-04-28T06:13:43.693Z,14.68
2023-04-28T06:14:43.547Z,14.08
2023-04-28T06:15:43.535Z,13.20
2023-04-28T06:16:43.470Z,10.39
2023-04-28T06:17:43.453Z,7.45
2023-04-28T06:18:43.377Z,5.62
2023-04-28T06:19:43.432Z,5.58
2023-04-28T06:20:43.310Z,4.35
2023-04-28T06:21:43.297Z,3.05
2023-04-28T06:22:43.334Z,2.95
2023-04-28T06:23:43.244Z,2.92
2023-04-28T06:24:43.195Z,2.51
2023-04-28T06:25:43.164Z,2.59
2023-04-28T06:26:43.136Z,2.05
2023-04-28T06:27:43.099Z,1.64
2023-04-28T06:28:43.070Z,1.28
2023-04-28T06:29:43.034Z,1.29
2023-04-28T06:30:43.017Z,1.32
2023-04-28T06:31:43.255Z,1.18
2023-04-28T06:32:42.961Z,1.03
2023-04-28T06:33:42.909Z,0.92
2023-04-28T06:34:42.883Z,0.91
2023-04-28T06:35:42.876Z,0.79
2023-04-28T06:36:42.837Z,0.82
2023-04-28T06:37:42.787Z,0.67
2023-04-28T06:38:42.932Z,0.66
2023-04-28T06:39:42.735Z,0.97
2023-04-28T06:40:42.701Z,1.24
2023-04-28T06:41:42.670Z,1.56
2023-04-28T06:42:42.718Z,1.84
2023-04-28T06:43:42.722Z,2.17
2023-04-28T06:44:42.753Z,2.62
2023-04-28T06:45:42.739Z,2.88
2023-04-28T06:46:42.800Z,3.28
2023-04-28T06:47:42.786Z,3.37
2023-04-28T06:48:42.791Z,3.74
2023-04-28T06:49:42.864Z,4.16
2023-04-28T06:50:43.947Z,4.09
2023-04-28T06:51:42.820Z,4.58
2023-04-28T06:52:42.848Z,4.56
2023-04-28T06:53:42.874Z,4.75
2023-04-28T06:54:42.858Z,4.68
2023-04-28T06:55:42.866Z,4.88
2023-04-28T06:56:42.899Z,4.84
2023-04-28T06:57:42.903Z,5.19
2023-04-28T06:58:42.923Z,5.30
2023-04-28T06:59:42.977Z,5.20
2023-04-28T07:00:43.004Z,5.33
2023-04-28T07:01:43.101Z,5.18
2023-04-28T07:02:43.090Z,5.38
2023-04-28T07:03:43.097Z,5.68
2023-04-28T07:04:43.057Z,5.66
2023-04-28T07:05:43.094Z,5.69
2023-04-28T07:06:43.105Z,5.53
2023-04-28T07:07:43.135Z,5.61
2023-04-28T07:08:43.152Z,5.50
2023-04-28T07:09:43.174Z,5.69
2023-04-28T07:10:43.210Z,5.71
2023-04-28T07:11:43.223Z,5.71
2023-04-28T07:12:43.267Z,5.65
2023-04-28T07:13:43.284Z,5.72
2023-04-28T07:14:43.353Z,5.59
2023-04-28T07:15:43.393Z,5.52
2023-04-28T07:16:43.500Z,5.47
2023-04-28T07:17:43.481Z,5.59
2023-04-28T07:18:43.473Z,5.52
2023-04-28T07:19:43.497Z,5.56
2023-04-28T07:20:43.532Z,5.54
2023-04-28T07:21:43.499Z,5.55
2023-04-28T07:22:43.480Z,5.56
2023-04-28T07:23:43.608Z,5.55
2023-04-28T07:24:43.402Z,5.35
2023-04-28T07:25:43.382Z,5.40
2023-04-28T07:26:43.415Z,5.31
2023-04-28T07:27:43.303Z,4.95
2023-04-28T07:28:43.274Z,5.02
2023-04-28T07:29:43.273Z,5.32
2023-04-28T07:30:43.345Z,5.11
2023-04-28T07:31:43.384Z,5.12
2023-04-28T07:32:43.298Z,5.12
2023-04-28T07:33:43.247Z,5.11
2023-04-28T07:34:43.211Z,5.02
2023-04-28T07:35:43.218Z,5.01
2023-04-28T07:36:44.002Z,4.95
2023-04-28T07:37:43.205Z,5.07
2023-04-28T07:38:43.077Z,5.48
2023-04-28T07:39:43.038Z,3.78
2023-04-28T07:40:43.055Z,2.74
2023-04-28T07:41:43.061Z,1.29
2023-04-28T07:42:42.956Z,0.97
2023-04-28T07:43:42.931Z,0.94
2023-04-28T07:44:42.897Z,0.59
2023-04-28T07:45:42.893Z,0.58
2023-04-28T07:46:42.852Z,0.44
2023-04-28T07:47:42.859Z,0.41
2023-04-28T07:48:42.828Z,0.52
2023-04-28T07:49:42.827Z,0.72
2023-04-28T07:50:42.850Z,0.77
2023-04-28T07:51:42.867Z,0.65
2023-04-28T07:52:42.839Z,0.58
2023-04-28T07:53:43.034Z,0.41
2023-04-28T07:54:42.786Z,0.34
2023-04-28T07:55:42.759Z,0.34
2023-04-28T07:56:42.989Z,0.34
2023-04-28T07:57:42.770Z,0.34
2023-04-28T07:58:42.708Z,0.34
2023-04-28T07:59:42.675Z,0.34
2023-04-28T08:00:42.662Z,0.34
2023-04-28T08:01:42.640Z,0.34
2023-04-28T08:02:42.755Z,0.34
2023-04-28T08:03:42.820Z,0.40
2023-04-28T08:04:42.812Z,0.45
2023-04-28T08:05:42.694Z,0.59
2023-04-28T08:06:42.549Z,0.52
2023-04-28T08:07:42.533Z,0.50
2023-04-28T08:08:42.568Z,0.53
2023-04-28T08:09:42.624Z,0.48
2023-04-28T08:10:42.604Z,0.50
2023-04-28T08:11:42.640Z,0.60
2023-04-28T08:12:42.725Z,0.62
2023-04-28T08:13:42.712Z,0.65
2023-04-28T08:14:42.798Z,0.64
2023-04-28T08:15:42.810Z,0.56
2023-04-28T08:16:42.824Z,0.55
2023-04-28T08:17:42.903Z,0.52
2023-04-28T08:18:43.022Z,0.61
2023-04-28T08:19:42.924Z,0.81
2023-04-28T08:20:42.959Z,0.69
2023-04-28T08:21:42.991Z,0.54
2023-04-28T08:22:43.036Z,0.69
2023-04-28T08:23:43.074Z,0.55
2023-04-28T08:24:43.102Z,0.68
2023-04-28T08:25:43.135Z,0.89
2023-04-28T08:26:43.218Z,0.78
2023-04-28T08:27:43.188Z,0.62
2023-04-28T08:28:43.222Z,0.66
2023-04-28T08:29:43.246Z,0.69
2023-04-28T08:30:43.255Z,0.63
2023-04-28T08:31:43.404Z,0.98
2023-04-28T08:32:43.324Z,1.47
2023-04-28T08:33:43.412Z,1.98
2023-04-28T08:34:43.404Z,2.87
2023-04-28T08:35:43.369Z,3.72
2023-04-28T08:36:43.319Z,4.53
2023-04-28T08:37:43.297Z,5.35
2023-04-28T08:38:43.297Z,6.36
2023-04-28T08:39:43.326Z,7.65
2023-04-28T08:40:43.329Z,8.70
2023-04-28T08:41:43.358Z,9.62
2023-04-28T08:42:43.370Z,10.86
2023-04-28T08:43:43.645Z,12.71
2023-04-28T08:44:44.009Z,14.66
2023-04-28T08:45:43.513Z,11.61
2023-04-28T08:46:43.683Z,9.13
2023-04-28T08:47:43.638Z,9.69
2023-04-28T08:48:43.641Z,10.22
2023-04-28T08:49:43.731Z,10.87
2023-04-28T08:50:43.764Z,11.88
2023-04-28T08:51:43.778Z,13.15
2023-04-28T08:52:43.851Z,15.43
2023-04-28T08:54:14.496Z,17.52
2023-04-28T08:54:44.798Z,17.61
2023-04-28T08:55:43.760Z,18.31
2023-04-28T08:56:43.736Z,20.12
2023-04-28T08:57:43.745Z,17.80
2023-04-28T08:58:43.703Z,18.96
2023-04-28T08:59:43.672Z,21.61
2023-04-28T09:00:43.645Z,25.75
2023-04-28T09:01:43.624Z,35.82
2023-04-28T09:02:43.741Z,36.51
2023-04-28T09:03:43.767Z,41.27
2023-04-28T09:04:43.694Z,39.67
2023-04-28T09:05:43.641Z,44.11
2023-04-28T09:06:43.510Z,45.07
2023-04-28T09:07:43.469Z,49.18
2023-04-28T09:08:43.430Z,49.33
2023-04-28T09:09:43.386Z,51.93
2023-04-28T09:10:43.377Z,54.26
2023-04-28T09:11:43.344Z,57.03
2023-04-28T09:12:43.310Z,60.23
2023-04-28T09:13:43.276Z,62.23
2023-04-28T09:14:43.259Z,64.66
2023-04-28T09:15:43.244Z,66.05
2023-04-28T09:16:43.393Z,69.76
2023-04-28T09:17:43.250Z,75.94
2023-04-28T09:18:43.153Z,76.79
2023-04-28T09:19:43.202Z,77.48
2023-04-28T09:20:43.088Z,81.56
2023-04-28T09:21:43.092Z,81.77
2023-04-28T09:22:43.096Z,87.22
2023-04-28T09:23:43.025Z,89.58
2023-04-28T09:24:43.094Z,92.24
2023-04-28T09:25:42.974Z,99.62
2023-04-28T09:26:42.958Z,98.27
2023-04-28T09:27:42.931Z,98.53
2023-04-28T09:28:42.876Z,99.01
2023-04-28T09:29:42.855Z,98.77
2023-04-28T09:30:42.826Z,100.42
2023-04-28T09:31:42.820Z,104.63
2023-04-28T09:32:42.792Z,110.11
2023-04-28T09:33:42.737Z,124.10
2023-04-28T09:34:42.713Z,131.30
2023-04-28T09:35:42.676Z,137.44
2023-04-28T09:36:42.637Z,143.44
2023-04-28T09:37:42.612Z,143.74
2023-04-28T09:38:42.575Z,144.16
2023-04-28T09:39:42.629Z,145.20
2023-04-28T09:40:42.537Z,149.36
2023-04-28T09:41:42.504Z,163.00
2023-04-28T09:42:42.447Z,175.04
2023-04-28T09:43:42.416Z,172.03
2023-04-28T09:44:42.381Z,177.39
2023-04-28T09:45:42.427Z,186.24
2023-04-28T09:46:42.319Z,192.43
2023-04-28T09:47:42.469Z,195.49
2023-04-28T09:48:42.388Z,195.81
2023-04-28T09:49:42.358Z,195.33
2023-04-28T09:50:42.332Z,194.57
2023-04-28T09:51:42.270Z,189.59
2023-04-28T09:52:42.273Z,179.29
2023-04-28T09:53:42.195Z,174.67
2023-04-28T09:54:42.161Z,176.01
2023-04-28T09:55:42.243Z,173.38
2023-04-28T09:56:42.115Z,173.79
2023-04-28T09:57:42.131Z,170.80
2023-04-28T09:58:42.125Z,171.06
2023-04-28T09:59:42.077Z,171.46
2023-04-28T10:00:42.005Z,173.61
2023-04-28T10:01:42.002Z,49.07
2023-04-28T10:02:43.669Z,45.83
2023-04-28T10:03:42.089Z,57.03
2023-04-28T10:04:42.045Z,58.02
2023-04-28T10:05:41.914Z,58.90
2023-04-28T10:06:41.863Z,58.86
2023-04-28T10:07:41.815Z,58.11
2023-04-28T10:08:41.786Z,55.14
2023-04-28T10:09:41.746Z,50.83
2023-04-28T10:10:41.715Z,49.20
2023-04-28T10:11:41.677Z,46.72
2023-04-28T10:12:41.657Z,44.71
2023-04-28T10:13:41.616Z,42.07
2023-04-28T10:14:41.835Z,39.44
2023-04-28T10:15:42.669Z,39.14
2023-04-28T10:16:41.572Z,36.26
2023-04-28T10:17:41.635Z,35.34
2023-04-28T10:18:41.556Z,33.63
2023-04-28T10:19:41.562Z,32.12
2023-04-28T10:20:41.553Z,31.59
2023-04-28T10:21:41.551Z,30.17
2023-04-28T10:22:42.046Z,29.76
2023-04-28T10:23:41.553Z,29.01
2023-04-28T10:24:41.521Z,27.57
2023-04-28T10:25:41.490Z,27.45
2023-04-28T10:26:41.471Z,27.25
2023-04-28T10:27:41.467Z,27.24
2023-04-28T10:28:43.219Z,27.47
2023-04-28T10:29:41.430Z,27.32
2023-04-28T10:30:41.432Z,28.03
2023-04-28T10:31:41.439Z,28.89
2023-04-28T10:32:41.451Z,28.49
2023-04-28T10:33:41.377Z,29.14
2023-04-28T10:34:41.318Z,29.54
2023-04-28T10:35:41.397Z,28.93
2023-04-28T10:36:41.276Z,30.06
2023-04-28T10:37:41.285Z,31.96
2023-04-28T10:38:41.204Z,34.08
2023-04-28T10:39:41.175Z,34.86
2023-04-28T10:40:41.136Z,36.01
2023-04-28T10:41:41.118Z,36.47
2023-04-28T10:42:41.105Z,36.55
2023-04-28T10:43:41.132Z,37.46
2023-04-28T10:44:41.113Z,36.78
2023-04-28T10:45:41.999Z,37.03
2023-04-28T10:46:40.999Z,38.48
2023-04-28T10:47:40.951Z,39.84
2023-04-28T10:48:40.928Z,41.05
2023-04-28T10:49:40.950Z,43.17
2023-04-28T10:50:40.991Z,43.97
2023-04-28T10:51:41.133Z,45.48
2023-04-28T10:52:41.081Z,45.44
2023-04-28T10:53:41.117Z,47.13
2023-04-28T10:54:41.129Z,48.75
2023-04-28T10:55:41.111Z,48.81
2023-04-28T10:56:42.139Z,49.04
2023-04-28T10:57:41.033Z,49.73
2023-04-28T10:58:41.037Z,51.60
2023-04-28T10:59:40.965Z,53.21
2023-04-28T11:00:40.938Z,53.26
2023-04-28T11:01:40.963Z,53.27
2023-04-28T11:02:43.826Z,54.24
2023-04-28T11:03:41.191Z,58.61
2023-04-28T11:04:41.020Z,57.89
2023-04-28T11:05:40.867Z,57.05
2023-04-28T11:06:40.782Z,56.83
2023-04-28T11:07:40.782Z,57.03
2023-04-28T11:08:40.761Z,57.73
2023-04-28T11:09:40.700Z,59.29
2023-04-28T11:10:40.659Z,62.71
2023-04-28T11:11:40.768Z,68.79
2023-04-28T11:12:40.573Z,70.35
2023-04-28T11:13:42.348Z,70.73
2023-04-28T11:14:40.810Z,69.91
2023-04-28T11:15:40.543Z,71.80
2023-04-28T11:16:40.635Z,73.24
2023-04-28T11:17:40.680Z,70.77
2023-04-28T11:18:40.647Z,52.76
2023-04-28T11:19:40.688Z,53.05
2023-04-28T11:20:40.621Z,54.33
2023-04-28T11:21:40.647Z,53.24
2023-04-28T11:22:40.492Z,55.09
2023-04-28T11:23:40.675Z,58.29
2023-04-28T11:24:40.709Z,65.26
2023-04-28T11:25:40.357Z,73.66
2023-04-28T11:26:40.341Z,77.13
2023-04-28T11:27:40.301Z,78.28
2023-04-28T11:28:40.295Z,78.01
2023-04-28T11:29:40.372Z,78.83
2023-04-28T11:30:40.434Z,68.70
2023-04-28T11:31:40.450Z,68.94
2023-04-28T11:32:40.484Z,71.12
2023-04-28T11:33:40.438Z,71.43
2023-04-28T11:34:40.477Z,73.32
2023-04-28T11:35:40.504Z,74.50
2023-04-28T11:36:40.518Z,76.01
2023-04-28T11:37:40.549Z,73.82
2023-04-28T11:38:40.583Z,73.87
2023-04-28T11:39:40.597Z,72.74
2023-04-28T11:40:40.625Z,71.38
2023-04-28T11:41:40.670Z,72.90
2023-04-28T11:42:40.732Z,69.38
2023-04-28T11:43:47.053Z,67.10
2023-04-28T11:44:41.689Z,67.15
2023-04-28T11:45:40.649Z,67.17
2023-04-28T11:46:40.599Z,65.65
2023-04-28T11:47:40.577Z,64.10
2023-04-28T11:48:40.533Z,61.31
2023-04-28T11:49:40.498Z,60.66
2023-04-28T11:50:40.448Z,56.91
2023-04-28T11:51:40.495Z,58.65
2023-04-28T11:52:40.366Z,57.29
2023-04-28T11:53:40.346Z,56.41
2023-04-28T11:54:40.303Z,55.70
2023-04-28T11:55:40.274Z,54.80
2023-04-28T11:56:40.356Z,54.60
2023-04-28T11:57:40.213Z,54.92
2023-04-28T11:58:40.188Z,53.09
2023-04-28T11:59:41.956Z,51.99
2023-04-28T12:00:40.100Z,52.06
2023-04-28T12:01:40.077Z,52.06
2023-04-28T12:02:40.147Z,51.97
2023-04-28T12:03:40.087Z,49.53
2023-04-28T12:04:39.994Z,51.06
2023-04-28T12:05:39.958Z,49.05
2023-04-28T12:06:39.916Z,48.76
2023-04-28T12:07:39.859Z,48.87
2023-04-28T12:08:39.845Z,48.85
2023-04-28T12:09:39.860Z,48.85
2023-04-28T12:10:39.830Z,47.84
2023-04-28T12:11:39.721Z,47.47
2023-04-28T12:12:50.060Z,47.27
2023-04-28T12:13:40.683Z,47.76
2023-04-28T12:14:39.641Z,47.06
2023-04-28T12:15:39.614Z,46.11
2023-04-28T12:16:39.578Z,45.47
2023-04-28T12:17:39.595Z,45.07
2023-04-28T12:18:39.496Z,44.57
2023-04-28T12:19:39.473Z,43.19
2023-04-28T12:20:39.656Z,42.54
2023-04-28T12:21:39.416Z,41.78
2023-04-28T12:22:39.366Z,41.84
2023-04-28T12:23:39.366Z,42.00
2023-04-28T12:24:39.327Z,42.26
2023-04-28T12:25:39.292Z,41.26
2023-04-28T12:26:39.262Z,41.27
2023-04-28T12:27:39.427Z,40.80
2023-04-28T12:28:39.204Z,40.24
2023-04-28T12:29:39.234Z,39.57
2023-04-28T12:30:39.140Z,38.86
2023-04-28T12:31:39.147Z,37.77
2023-04-28T12:32:39.081Z,38.07
2023-04-28T12:33:39.111Z,36.96
2023-04-28T12:34:39.008Z,36.26
2023-04-28T12:35:39.012Z,36.10
2023-04-28T12:36:38.936Z,36.07
2023-04-28T12:37:38.949Z,35.06
2023-04-28T12:38:38.878Z,34.85
2023-04-28T12:39:39.840Z,34.81
2023-04-28T12:40:38.849Z,34.63
2023-04-28T12:41:38.820Z,34.12
2023-04-28T12:42:38.753Z,33.91
2023-04-28T12:43:38.721Z,33.93
2023-04-28T12:44:38.678Z,33.96
2023-04-28T12:45:39.020Z,33.43
2023-04-28T12:46:38.713Z,34.45
2023-04-28T12:47:38.688Z,33.93
2023-04-28T12:48:38.559Z,34.02
2023-04-28T12:49:38.512Z,33.39
2023-04-28T12:50:38.547Z,33.19
2023-04-28T12:51:39.139Z,33.43
2023-04-28T12:52:38.385Z,32.24
2023-04-28T12:53:38.366Z,32.78
2023-04-28T12:54:38.329Z,32.19
2023-04-28T12:55:38.291Z,32.87
2023-04-28T12:56:38.265Z,32.09
2023-04-28T12:57:39.283Z,32.11
2023-04-28T12:58:38.232Z,32.12
2023-04-28T12:59:38.204Z,31.05
2023-04-28T13:00:38.226Z,31.61
2023-04-28T13:01:38.145Z,31.98
2023-04-28T13:02:38.269Z,31.58
2023-04-28T13:03:39.669Z,31.52
2023-04-28T13:04:38.234Z,29.93
2023-04-28T13:05:38.046Z,29.16
2023-04-28T13:06:37.971Z,29.79
2023-04-28T13:07:37.939Z,28.75
2023-04-28T13:08:37.909Z,28.77